Time;durP1;ratioP1;P1;durP2;ratioP2;P2;SDS_P1;SDS_P2;PMS_P1;PMS_P2;Temp;Humidity;BMP_temperature;BMP_pressure;BME280_temperature;BME280_humidity;BME280_pressure;Samples;Min_cycle;Max_cycle;Signal;HPM_P1;HPM_P2
2023/05/09 00:02:29;;;;;;;33.17;22.50;;;19.80;67.90;;;;;;5063108;28;20116;-49
2023/05/09 00:05:02;;;;;;;32.85;22.10;;;19.80;68.30;;;;;;5052305;28;20061;-50
2023/05/09 00:07:32;;;;;;;32.30;21.38;;;19.80;68.60;;;;;;5050334;28;20547;-50
2023/05/09 00:10:06;;;;;;;38.13;24.52;;;19.80;68.30;;;;;;5051158;28;20094;-52
2023/05/09 00:12:37;;;;;;;31.27;22.05;;;19.80;68.60;;;;;;5056285;28;20144;-50
2023/05/09 00:15:07;;;;;;;34.42;24.27;;;19.80;68.80;;;;;;5051978;28;20500;-52
2023/05/09 00:17:37;;;;;;;31.98;21.90;;;19.80;68.90;;;;;;5052672;28;20079;-50
2023/05/09 00:20:10;;;;;;;34.65;20.88;;;19.80;68.90;;;;;;5052448;28;20079;-49
2023/05/09 00:22:39;;;;;;;33.00;22.80;;;19.80;69.20;;;;;;5051084;28;20106;-48
2023/05/09 00:25:07;;;;;;;32.38;21.23;;;19.80;68.90;;;;;;5052299;28;20396;-52
2023/05/09 00:27:36;;;;;;;33.90;22.67;;;19.80;69.00;;;;;;5050562;28;20515;-51
2023/05/09 00:30:06;;;;;;;29.25;20.70;;;19.80;69.10;;;;;;5051970;28;20049;-50
2023/05/09 00:32:35;;;;;;;30.10;19.88;;;19.80;69.00;;;;;;5050638;28;20441;-48
2023/05/09 00:35:02;;;;;;;25.17;18.45;;;19.80;69.10;;;;;;5056011;28;20118;-49
2023/05/09 00:37:30;;;;;;;26.80;20.52;;;19.80;69.00;;;;;;5050735;28;20386;-50
2023/05/09 00:39:59;;;;;;;33.78;22.17;;;19.70;69.10;;;;;;5051686;28;20448;-50
2023/05/09 00:42:34;;;;;;;29.58;20.58;;;19.70;69.30;;;;;;5054981;28;20036;-47
2023/05/09 00:45:03;;;;;;;29.80;19.90;;;19.70;69.20;;;;;;5049175;28;20071;-50
2023/05/09 00:47:33;;;;;;;30.30;20.40;;;19.70;69.20;;;;;;5051769;28;20041;-49
2023/05/09 00:50:02;;;;;;;28.05;19.30;;;19.70;69.50;;;;;;5049011;28;20053;-47
2023/05/09 00:52:29;;;;;;;29.45;20.60;;;19.60;69.50;;;;;;5032447;28;20041;-49
2023/05/09 00:54:56;;;;;;;32.72;23.02;;;19.70;69.50;;;;;;5052553;28;20044;-46
2023/05/09 00:57:23;;;;;;;29.75;21.55;;;19.70;69.70;;;;;;5050162;28;20052;-50
2023/05/09 00:59:50;;;;;;;30.38;20.30;;;19.60;69.60;;;;;;5051186;28;20045;-52
2023/05/09 01:02:17;;;;;;;31.27;20.90;;;19.60;69.60;;;;;;5033431;28;20055;-46
2023/05/09 01:04:53;;;;;;;29.15;19.95;;;19.60;69.70;;;;;;5051549;28;20037;-50
2023/05/09 01:07:39;;;;;;;30.80;19.92;;;19.70;70.10;;;;;;5050054;28;20032;-48
2023/05/09 01:10:20;;;;;;;29.63;19.33;;;19.70;70.70;;;;;;5049838;28;20394;-53
2023/05/09 01:13:11;;;;;;;27.45;18.38;;;19.70;70.40;;;;;;5052239;28;20044;-46
2023/05/09 01:15:53;;;;;;;26.58;18.55;;;19.70;70.80;;;;;;5048985;28;20045;-46
2023/05/09 01:18:36;;;;;;;31.23;19.60;;;19.80;70.70;;;;;;5050226;28;20041;-51
2023/05/09 01:21:10;;;;;;;28.15;19.35;;;19.70;70.40;;;;;;5050009;28;20045;-51
2023/05/09 01:24:25;;;;;;;26.80;18.17;;;19.70;70.20;;;;;;5051337;28;20055;-48
2023/05/09 01:27:19;;;;;;;28.08;17.83;;;19.70;70.90;;;;;;5047295;28;20055;-49
2023/05/09 01:29:50;;;;;;;26.65;19.88;;;19.70;70.60;;;;;;5032104;28;20041;-48
2023/05/09 01:32:25;;;;;;;25.88;18.42;;;19.70;69.90;;;;;;5042736;28;20045;-46
2023/05/09 01:34:58;;;;;;;23.30;17.20;;;19.70;70.00;;;;;;5046272;28;20048;-48
2023/05/09 01:37:32;;;;;;;23.30;16.90;;;19.70;70.20;;;;;;5042125;28;20044;-46
2023/05/09 01:40:08;;;;;;;24.13;18.50;;;19.70;70.10;;;;;;5048760;28;20045;-46
2023/05/09 01:42:43;;;;;;;22.80;17.30;;;19.70;70.00;;;;;;5051813;28;20045;-49
2023/05/09 01:45:17;;;;;;;26.83;17.48;;;19.70;70.20;;;;;;5051582;28;20090;-46
2023/05/09 01:47:50;;;;;;;22.70;16.42;;;19.70;69.90;;;;;;5049521;28;20041;-48
2023/05/09 01:50:18;;;;;;;20.27;14.93;;;19.60;69.60;;;;;;5049901;28;20041;-47
2023/05/09 01:52:48;;;;;;;20.27;16.38;;;19.60;69.60;;;;;;5049193;28;20045;-46
2023/05/09 01:55:18;;;;;;;23.02;15.25;;;19.60;69.70;;;;;;5051275;28;20128;-49
2023/05/09 01:57:49;;;;;;;21.35;15.20;;;19.50;69.60;;;;;;5031608;28;20048;-52
2023/05/09 02:00:22;;;;;;;21.30;15.30;;;19.50;69.60;;;;;;5046993;28;20060;-47
2023/05/09 02:02:53;;;;;;;22.00;15.63;;;19.50;69.90;;;;;;5055727;28;20496;-46
2023/05/09 02:05:24;;;;;;;17.55;14.07;;;19.40;69.70;;;;;;5046399;28;20061;-46
2023/05/09 02:07:53;;;;;;;21.40;15.02;;;19.40;69.80;;;;;;5031344;28;20045;-49
2023/05/09 02:10:21;;;;;;;20.95;14.63;;;19.30;69.70;;;;;;5051499;28;20051;-46
2023/05/09 02:12:54;;;;;;;18.45;14.27;;;19.30;69.90;;;;;;5047764;28;20434;-50
2023/05/09 02:15:27;;;;;;;18.63;14.90;;;19.30;70.10;;;;;;5033555;28;20555;-49
2023/05/09 02:17:56;;;;;;;19.25;14.10;;;19.30;70.10;;;;;;5048865;28;20048;-47
2023/05/09 02:20:25;;;;;;;21.00;15.45;;;19.30;70.30;;;;;;5049829;28;20112;-50
2023/05/09 02:22:58;;;;;;;18.10;13.85;;;19.30;70.40;;;;;;5030737;28;20049;-46
2023/05/09 02:25:25;;;;;;;18.55;15.50;;;19.20;70.60;;;;;;5023780;28;20456;-46
2023/05/09 02:27:54;;;;;;;19.15;14.80;;;19.20;70.40;;;;;;5047465;28;20045;-47
2023/05/09 02:30:27;;;;;;;19.30;15.33;;;19.20;70.50;;;;;;5041355;28;20508;-46
2023/05/09 02:33:02;;;;;;;22.95;15.23;;;19.20;70.50;;;;;;5027440;28;20606;-47
2023/05/09 02:35:29;;;;;;;19.17;15.05;;;19.20;70.80;;;;;;5042946;28;20048;-50
2023/05/09 02:37:58;;;;;;;21.08;15.93;;;19.20;70.50;;;;;;5030538;28;20115;-48
2023/05/09 02:40:30;;;;;;;17.88;13.93;;;19.20;70.70;;;;;;5040156;28;20123;-46
2023/05/09 02:43:01;;;;;;;18.80;14.60;;;19.20;70.60;;;;;;5026527;28;20574;-47
2023/05/09 02:45:28;;;;;;;20.60;14.88;;;19.20;70.60;;;;;;5049911;28;20041;-48
2023/05/09 02:48:00;;;;;;;19.98;14.85;;;19.20;70.70;;;;;;5033120;28;20091;-51
2023/05/09 02:50:27;;;;;;;18.88;13.77;;;19.30;70.70;;;;;;5031662;28;20098;-50
2023/05/09 02:52:57;;;;;;;18.55;14.90;;;19.30;70.60;;;;;;5048375;28;20525;-46
2023/05/09 02:55:24;;;;;;;20.08;14.52;;;19.20;70.60;;;;;;5028197;28;20049;-48
2023/05/09 02:57:54;;;;;;;19.25;14.70;;;19.30;70.80;;;;;;5052229;28;20047;-49
2023/05/09 03:00:38;;;;;;;19.88;13.85;;;19.30;70.80;;;;;;5030692;28;20037;-46
2023/05/09 03:03:05;;;;;;;19.05;13.82;;;19.30;70.50;;;;;;5030532;28;20041;-46
2023/05/09 03:05:37;;;;;;;20.35;14.63;;;19.30;70.60;;;;;;5049220;28;20037;-47
2023/05/09 03:08:06;;;;;;;18.83;14.65;;;19.30;70.70;;;;;;5029620;28;20114;-48
2023/05/09 03:10:33;;;;;;;19.52;14.02;;;19.30;70.50;;;;;;5030576;28;20041;-50
2023/05/09 03:13:00;;;;;;;17.50;13.50;;;19.30;70.50;;;;;;5033588;28;20044;-46
2023/05/09 03:15:29;;;;;;;20.15;14.70;;;19.30;70.50;;;;;;5036235;28;20044;-50
2023/05/09 03:18:05;;;;;;;19.73;14.15;;;19.30;70.60;;;;;;5051946;28;20045;-49
2023/05/09 03:20:34;;;;;;;20.52;14.10;;;19.30;70.60;;;;;;5034332;28;20405;-47
2023/05/09 03:23:04;;;;;;;20.02;14.95;;;19.30;70.60;;;;;;5037595;28;20064;-52
2023/05/09 03:25:33;;;;;;;19.88;13.82;;;19.30;70.60;;;;;;5033584;28;20078;-49
2023/05/09 03:28:03;;;;;;;18.02;13.13;;;19.30;70.50;;;;;;5037191;28;20037;-46
2023/05/09 03:30:30;;;;;;;19.63;14.07;;;19.30;70.50;;;;;;5033756;28;20493;-49
2023/05/09 03:33:05;;;;;;;18.02;14.18;;;19.30;70.30;;;;;;5041988;28;20048;-53
2023/05/09 03:35:33;;;;;;;17.88;13.88;;;19.30;70.40;;;;;;5029038;28;20056;-53
2023/05/09 03:38:04;;;;;;;16.70;13.32;;;19.30;70.30;;;;;;5031650;28;20046;-47
2023/05/09 03:40:41;;;;;;;18.90;14.25;;;19.30;70.50;;;;;;5034499;28;20657;-46
2023/05/09 03:43:09;;;;;;;15.00;12.90;;;19.30;70.50;;;;;;5031858;28;20460;-48
2023/05/09 03:45:37;;;;;;;19.33;14.05;;;19.30;70.40;;;;;;5035424;28;20087;-49
2023/05/09 03:48:08;;;;;;;16.55;13.02;;;19.30;70.50;;;;;;5036333;28;20053;-50
2023/05/09 03:50:37;;;;;;;17.35;13.90;;;19.30;70.50;;;;;;5034114;28;20521;-46
2023/05/09 03:53:07;;;;;;;18.40;14.20;;;19.30;70.50;;;;;;5050907;28;20049;-50
2023/05/09 03:55:41;;;;;;;18.60;14.77;;;19.20;70.40;;;;;;5029091;28;20041;-48
2023/05/09 03:58:11;;;;;;;18.65;13.90;;;19.30;70.30;;;;;;5048912;28;20049;-54
2023/05/09 04:00:41;;;;;;;15.48;13.77;;;19.30;70.30;;;;;;5034716;28;20037;-48
2023/05/09 04:03:14;;;;;;;19.05;14.38;;;19.30;70.40;;;;;;5056057;28;20068;-52
2023/05/09 04:05:45;;;;;;;16.98;14.27;;;19.20;70.50;;;;;;5034489;28;20056;-48
2023/05/09 04:08:28;;;;;;;18.05;13.32;;;19.20;70.50;;;;;;5034233;28;20414;-52
2023/05/09 04:11:05;;;;;;;18.17;13.05;;;19.20;70.50;;;;;;5035260;28;20135;-48
2023/05/09 04:13:35;;;;;;;16.95;13.38;;;19.20;70.40;;;;;;5031794;28;20099;-49
2023/05/09 04:16:09;;;;;;;18.40;13.90;;;19.20;70.50;;;;;;5052614;28;20049;-51
2023/05/09 04:18:38;;;;;;;17.73;14.32;;;19.20;70.60;;;;;;5025895;28;20111;-49
2023/05/09 04:21:07;;;;;;;19.33;14.15;;;19.20;70.60;;;;;;5029874;28;20516;-52
2023/05/09 04:23:34;;;;;;;17.92;14.18;;;19.20;70.70;;;;;;5033033;28;20048;-48
2023/05/09 04:26:01;;;;;;;17.52;13.50;;;19.20;70.70;;;;;;5039936;28;20072;-46
2023/05/09 04:28:29;;;;;;;17.20;14.23;;;19.20;70.70;;;;;;5029697;28;20041;-46
2023/05/09 04:30:56;;;;;;;18.20;13.25;;;19.20;70.70;;;;;;5050163;28;20075;-47
2023/05/09 04:33:23;;;;;;;21.08;14.82;;;19.20;70.50;;;;;;5049831;28;20041;-49
2023/05/09 04:35:51;;;;;;;17.98;13.85;;;19.20;70.40;;;;;;5037467;28;20098;-49
2023/05/09 04:38:17;;;;;;;18.55;14.63;;;19.10;70.40;;;;;;5031742;28;20660;-46
2023/05/09 04:40:45;;;;;;;18.38;14.18;;;19.20;70.50;;;;;;5034308;28;20134;-46
2023/05/09 04:43:11;;;;;;;15.73;13.23;;;19.20;70.60;;;;;;5030780;28;20532;-45
2023/05/09 04:45:38;;;;;;;15.75;12.93;;;19.20;70.50;;;;;;5032910;28;20055;-50
2023/05/09 04:48:07;;;;;;;19.08;13.45;;;19.20;70.40;;;;;;5031692;28;20041;-45
2023/05/09 04:50:33;;;;;;;19.90;13.35;;;19.20;70.40;;;;;;5049840;28;20075;-47
2023/05/09 04:53:02;;;;;;;19.05;13.82;;;19.20;70.40;;;;;;5049666;28;20071;-49
2023/05/09 04:55:29;;;;;;;19.00;14.70;;;19.20;70.30;;;;;;5029713;28;20596;-50
2023/05/09 04:57:56;;;;;;;20.70;14.93;;;19.20;70.30;;;;;;5049443;28;20413;-49
2023/05/09 05:00:23;;;;;;;17.63;13.75;;;19.20;70.20;;;;;;5031511;28;20069;-48
2023/05/09 05:02:50;;;;;;;17.33;13.27;;;19.30;70.40;;;;;;5033048;28;20462;-46
2023/05/09 05:05:19;;;;;;;21.05;14.80;;;19.30;70.40;;;;;;5034826;28;20037;-50
2023/05/09 05:07:53;;;;;;;18.00;14.15;;;19.30;70.40;;;;;;5032238;28;20420;-50
2023/05/09 05:10:22;;;;;;;17.75;13.48;;;19.30;70.40;;;;;;5033639;28;20041;-50
2023/05/09 05:12:54;;;;;;;17.80;13.88;;;19.30;70.50;;;;;;5029888;28;20122;-49
2023/05/09 05:15:22;;;;;;;20.55;14.60;;;19.30;70.40;;;;;;5039155;28;20628;-49
2023/05/09 05:17:49;;;;;;;18.30;13.57;;;19.40;70.60;;;;;;5050220;28;20523;-45
2023/05/09 05:20:20;;;;;;;19.55;14.13;;;19.40;70.60;;;;;;5032324;28;20095;-48
2023/05/09 05:22:46;;;;;;;18.67;13.55;;;19.40;70.70;;;;;;5050080;28;20041;-48
2023/05/09 05:25:13;;;;;;;20.15;14.57;;;19.50;70.60;;;;;;5029611;28;20041;-51
2023/05/09 05:27:41;;;;;;;18.10;13.82;;;19.50;70.70;;;;;;5045208;28;20048;-50
2023/05/09 05:30:11;;;;;;;22.73;16.95;;;19.50;70.40;;;;;;5032512;28;20041;-47
2023/05/09 05:32:37;;;;;;;20.33;15.13;;;19.60;70.40;;;;;;5031728;28;20106;-51
2023/05/09 05:35:04;;;;;;;20.35;16.70;;;19.60;70.20;;;;;;5050667;28;20045;-48
2023/05/09 05:37:34;;;;;;;19.25;15.73;;;19.60;70.20;;;;;;5028504;28;20052;-52
2023/05/09 05:40:01;;;;;;;20.02;15.43;;;19.70;70.20;;;;;;5031277;28;20642;-53
2023/05/09 05:42:29;;;;;;;20.55;15.85;;;19.70;70.30;;;;;;5031994;28;20037;-52
2023/05/09 05:44:56;;;;;;;22.27;15.82;;;19.70;70.30;;;;;;5030496;28;20045;-53
2023/05/09 05:47:23;;;;;;;24.80;18.15;;;19.70;70.20;;;;;;5026331;28;20049;-51
2023/05/09 05:49:50;;;;;;;20.63;16.08;;;19.70;70.10;;;;;;5031163;28;20543;-52
2023/05/09 05:52:17;;;;;;;20.73;15.95;;;19.70;70.00;;;;;;5030731;28;20135;-54
2023/05/09 05:54:44;;;;;;;24.52;17.80;;;19.80;70.30;;;;;;5031320;28;20044;-50
2023/05/09 05:57:10;;;;;;;23.83;17.85;;;19.80;70.30;;;;;;5048073;28;20069;-56
2023/05/09 05:59:37;;;;;;;24.30;17.92;;;19.90;70.40;;;;;;5029767;28;20150;-51
2023/05/09 06:02:05;;;;;;;24.98;18.83;;;19.90;70.20;;;;;;5031471;28;20040;-52
2023/05/09 06:04:36;;;;;;;26.70;19.98;;;19.90;70.10;;;;;;5053350;28;20083;-54
2023/05/09 06:07:02;;;;;;;27.13;18.55;;;19.90;70.30;;;;;;5030887;28;20497;-51
2023/05/09 06:09:29;;;;;;;24.08;19.05;;;20.00;70.20;;;;;;5030966;28;20037;-56
2023/05/09 06:11:56;;;;;;;24.83;19.13;;;19.90;70.00;;;;;;5049336;28;20520;-53
2023/05/09 06:14:24;;;;;;;26.55;19.50;;;20.00;70.20;;;;;;5051519;28;20531;-53
2023/05/09 06:16:50;;;;;;;27.02;20.17;;;20.00;70.10;;;;;;5052252;28;20136;-54
2023/05/09 06:19:20;;;;;;;29.25;18.83;;;20.00;70.10;;;;;;5030909;28;20135;-53
2023/05/09 06:21:47;;;;;;;28.13;20.00;;;20.00;70.30;;;;;;5030618;28;20045;-52
2023/05/09 06:24:13;;;;;;;27.25;19.85;;;20.10;70.30;;;;;;5030963;28;20063;-54
2023/05/09 06:26:57;;;;;;;27.17;19.20;;;20.00;70.10;;;;;;5043386;28;20051;-54
2023/05/09 06:29:24;;;;;;;25.17;19.55;;;20.10;70.10;;;;;;5048402;28;20428;-55
2023/05/09 06:31:50;;;;;;;28.38;20.27;;;20.10;70.00;;;;;;5049932;28;20455;-55
2023/05/09 06:34:17;;;;;;;29.70;21.52;;;20.20;70.10;;;;;;5050321;28;20083;-54
2023/05/09 06:36:44;;;;;;;28.13;21.52;;;20.20;70.10;;;;;;5030421;28;20037;-54
2023/05/09 06:39:10;;;;;;;30.90;20.63;;;20.20;70.10;;;;;;5047823;28;20091;-54
2023/05/09 06:41:39;;;;;;;27.65;19.40;;;20.20;69.90;;;;;;5023880;28;20056;-55
2023/05/09 06:44:06;;;;;;;28.38;18.83;;;20.30;70.10;;;;;;5052083;28;20048;-51
2023/05/09 06:46:32;;;;;;;30.48;20.92;;;20.30;70.20;;;;;;5051752;28;20424;-52
2023/05/09 06:49:01;;;;;;;31.20;22.00;;;20.40;70.10;;;;;;5048696;28;20567;-55
2023/05/09 06:51:27;;;;;;;28.15;19.73;;;20.40;70.10;;;;;;5042328;28;20092;-53
2023/05/09 06:53:54;;;;;;;25.42;19.40;;;20.40;70.10;;;;;;5039553;28;20055;-52
2023/05/09 06:56:22;;;;;;;27.55;19.83;;;20.50;70.20;;;;;;5050663;28;20055;-54
2023/05/09 06:58:48;;;;;;;28.98;21.77;;;20.60;70.00;;;;;;5048342;28;20045;-55
2023/05/09 07:01:16;;;;;;;24.67;19.08;;;20.60;70.00;;;;;;5048952;28;20045;-52
2023/05/09 07:03:43;;;;;;;27.70;19.45;;;20.70;69.90;;;;;;5049475;28;20037;-56
2023/05/09 07:06:10;;;;;;;26.42;19.50;;;20.80;69.70;;;;;;5049251;28;20517;-47
2023/05/09 07:08:36;;;;;;;24.80;18.25;;;20.90;69.40;;;;;;5041202;28;20037;-52
2023/05/09 07:11:03;;;;;;;23.25;17.20;;;20.90;68.90;;;;;;5048278;28;20048;-49
2023/05/09 07:13:30;;;;;;;19.45;15.07;;;21.00;68.60;;;;;;5030730;28;20052;-52
2023/05/09 07:15:56;;;;;;;18.30;13.90;;;21.10;68.10;;;;;;5055464;28;20037;-49
2023/05/09 07:18:23;;;;;;;20.70;14.77;;;21.20;68.10;;;;;;5049037;28;20091;-51
2023/05/09 07:20:50;;;;;;;20.00;14.85;;;21.30;67.80;;;;;;5048359;28;20041;-52
2023/05/09 07:23:17;;;;;;;18.30;13.65;;;21.30;67.50;;;;;;5049401;28;20041;-49
2023/05/09 07:25:44;;;;;;;18.90;14.05;;;21.40;67.80;;;;;;5049133;28;20144;-54
2023/05/09 07:28:11;;;;;;;20.42;14.50;;;21.50;67.40;;;;;;5048515;28;20043;-51
2023/05/09 07:30:38;;;;;;;18.38;14.02;;;21.60;66.90;;;;;;5040541;28;20069;-50
2023/05/09 07:33:05;;;;;;;18.05;13.15;;;21.70;67.00;;;;;;5047741;28;20300;-51
2023/05/09 07:35:32;;;;;;;17.27;11.68;;;21.80;66.60;;;;;;5052393;28;20033;-53
2023/05/09 07:37:58;;;;;;;14.90;11.85;;;21.80;66.00;;;;;;5047556;28;20045;-53
2023/05/09 07:40:25;;;;;;;14.35;11.50;;;21.90;65.70;;;;;;5048090;28;20404;-49
2023/05/09 07:42:53;;;;;;;13.90;11.10;;;22.00;65.60;;;;;;5049613;28;20033;-48
2023/05/09 07:45:20;;;;;;;14.32;11.95;;;22.10;65.50;;;;;;5049300;28;20112;-50
2023/05/09 07:47:50;;;;;;;15.10;11.75;;;22.10;65.40;;;;;;5048111;28;20087;-50
2023/05/09 07:50:17;;;;;;;16.83;12.48;;;22.20;65.30;;;;;;5047958;28;20067;-52
2023/05/09 07:52:44;;;;;;;14.15;10.77;;;22.30;65.30;;;;;;5049245;28;20045;-49
2023/05/09 07:55:11;;;;;;;13.02;9.88;;;22.40;65.00;;;;;;5048050;28;20049;-52
2023/05/09 07:57:38;;;;;;;11.95;9.30;;;22.50;64.90;;;;;;5048230;28;20049;-52
2023/05/09 08:00:06;;;;;;;10.60;8.98;;;22.60;63.80;;;;;;5051635;28;20242;-53
2023/05/09 08:02:38;;;;;;;12.27;9.48;;;22.70;63.70;;;;;;5055198;28;20052;-55
2023/05/09 08:05:06;;;;;;;10.65;8.45;;;22.80;63.40;;;;;;5051283;28;20041;-50
2023/05/09 08:07:33;;;;;;;8.85;7.43;;;22.90;62.90;;;;;;5052282;28;20409;-52
2023/05/09 08:10:00;;;;;;;9.60;8.07;;;23.00;62.70;;;;;;5051573;28;20041;-52
2023/05/09 08:12:26;;;;;;;10.20;8.13;;;23.10;62.50;;;;;;5057339;28;20063;-49
2023/05/09 08:14:53;;;;;;;9.90;7.07;;;23.10;62.40;;;;;;5051008;28;20055;-53
2023/05/09 08:17:20;;;;;;;7.53;6.70;;;23.20;62.30;;;;;;5051999;28;20056;-53
2023/05/09 08:19:46;;;;;;;8.73;7.93;;;23.30;62.00;;;;;;5051300;28;20041;-49
2023/05/09 08:22:17;;;;;;;9.93;8.18;;;23.30;61.40;;;;;;5051265;28;20049;-52
2023/05/09 08:24:45;;;;;;;8.77;7.68;;;23.40;61.50;;;;;;5049281;28;20041;-53
2023/05/09 08:27:12;;;;;;;7.80;6.13;;;23.50;61.10;;;;;;5052092;28;20045;-53
2023/05/09 08:29:40;;;;;;;7.03;5.70;;;23.50;60.50;;;;;;5033142;28;20041;-54
2023/05/09 08:32:07;;;;;;;5.85;5.10;;;23.60;60.20;;;;;;5053910;28;20056;-54
2023/05/09 08:34:35;;;;;;;6.00;5.43;;;23.60;60.00;;;;;;5051451;28;20075;-54
2023/05/09 08:37:02;;;;;;;5.68;4.85;;;23.60;59.60;;;;;;5051732;28;20049;-54
2023/05/09 08:39:29;;;;;;;5.47;4.97;;;23.60;59.70;;;;;;5051277;28;20110;-50
2023/05/09 08:42:01;;;;;;;9.18;5.93;;;23.60;59.70;;;;;;5056791;28;20044;-49
2023/05/09 08:44:29;;;;;;;6.82;5.57;;;23.60;59.50;;;;;;5051237;28;20116;-52
2023/05/09 08:47:02;;;;;;;6.15;5.55;;;23.60;59.80;;;;;;5051452;28;20045;-55
2023/05/09 08:49:29;;;;;;;6.65;5.90;;;23.70;59.30;;;;;;5051005;28;20563;-53
2023/05/09 08:51:56;;;;;;;7.10;5.50;;;23.70;59.00;;;;;;5051363;28;20049;-49
2023/05/09 08:54:24;;;;;;;8.35;6.07;;;23.70;58.70;;;;;;5052986;28;20066;-52
2023/05/09 08:56:50;;;;;;;6.43;5.75;;;23.80;58.70;;;;;;5049960;28;20090;-52
2023/05/09 08:59:18;;;;;;;5.20;4.70;;;23.80;58.50;;;;;;5051564;28;20442;-54
2023/05/09 09:01:44;;;;;;;6.60;4.85;;;23.80;58.80;;;;;;5045476;28;20049;-52
2023/05/09 09:04:11;;;;;;;4.65;4.10;;;23.80;58.00;;;;;;5051354;28;20501;-52
2023/05/09 09:06:39;;;;;;;6.68;4.97;;;23.70;57.90;;;;;;5050304;28;20485;-53
2023/05/09 09:09:07;;;;;;;5.43;4.50;;;23.70;57.80;;;;;;5041180;22;20434;-51
2023/05/09 09:11:35;;;;;;;5.13;4.22;;;23.60;57.60;;;;;;5010531;28;20073;-52
2023/05/09 09:14:12;;;;;;;5.40;4.90;;;23.60;57.50;;;;;;5011251;28;20042;-53
2023/05/09 09:16:41;;;;;;;4.93;4.47;;;23.50;57.10;;;;;;5009213;28;20046;-50
2023/05/09 09:19:12;;;;;;;3.97;3.60;;;23.40;57.10;;;;;;5006318;28;20513;-51
2023/05/09 09:21:44;;;;;;;4.32;3.92;;;23.30;56.90;;;;;;5012346;28;20053;-49
2023/05/09 09:24:12;;;;;;;4.53;3.90;;;23.20;56.90;;;;;;5017057;28;20041;-52
2023/05/09 09:26:47;;;;;;;3.85;3.35;;;23.10;57.30;;;;;;5011112;28;20736;-51
2023/05/09 09:29:15;;;;;;;4.07;3.50;;;23.10;57.50;;;;;;5010108;28;20052;-50
2023/05/09 09:31:46;;;;;;;3.80;3.38;;;23.00;57.60;;;;;;5011155;28;20042;-49
2023/05/09 09:34:20;;;;;;;3.90;3.50;;;23.10;57.60;;;;;;4994184;28;20054;-50
2023/05/09 09:36:47;;;;;;;4.45;4.05;;;23.10;57.50;;;;;;5004490;28;20038;-49
2023/05/09 09:39:14;;;;;;;4.47;3.83;;;23.10;57.90;;;;;;5013443;28;20069;-50
2023/05/09 09:41:41;;;;;;;4.25;3.95;;;23.20;57.70;;;;;;5018681;28;20087;-53
2023/05/09 09:44:08;;;;;;;4.10;3.63;;;23.20;57.50;;;;;;5014064;28;20042;-52
2023/05/09 09:46:41;;;;;;;3.97;3.42;;;23.30;57.30;;;;;;5008055;28;20137;-54
2023/05/09 09:49:19;;;;;;;3.60;3.30;;;23.30;56.80;;;;;;5010458;28;20117;-51
2023/05/09 09:51:50;;;;;;;4.60;3.22;;;23.30;56.50;;;;;;5002991;28;20097;-53
2023/05/09 09:54:17;;;;;;;4.40;4.00;;;23.30;56.50;;;;;;5010920;28;20121;-50
2023/05/09 09:56:47;;;;;;;3.97;3.55;;;23.40;57.10;;;;;;5010561;28;20042;-50
2023/05/09 09:59:16;;;;;;;3.78;3.47;;;23.40;57.10;;;;;;5011355;28;20126;-50
2023/05/09 10:01:59;;;;;;;6.30;4.20;;;23.50;56.50;;;;;;5006570;28;20056;-51
2023/05/09 10:04:33;;;;;;;4.55;3.88;;;23.60;56.10;;;;;;5006952;28;20088;-51
2023/05/09 10:07:02;;;;;;;;;;;23.60;56.40;;;;;;5009522;28;20049;-51
2023/05/09 10:09:28;;;;;;;3.63;3.08;;;23.60;57.00;;;;;;5009186;28;19933;-50
2023/05/09 10:11:56;;;;;;;5.25;3.83;;;23.70;56.90;;;;;;5014163;28;20414;-52
2023/05/09 10:14:25;;;;;;;5.68;3.88;;;23.70;56.60;;;;;;5010175;28;20446;-51
2023/05/09 10:16:57;;;;;;;5.00;3.80;;;23.80;56.60;;;;;;5007932;28;20041;-49
2023/05/09 10:19:28;;;;;;;4.47;3.53;;;23.80;56.10;;;;;;5006074;28;20112;-50
2023/05/09 10:21:57;;;;;;;4.15;3.85;;;23.80;56.40;;;;;;5008777;28;20063;-51
2023/05/09 10:24:39;;;;;;;4.28;3.97;;;23.90;56.10;;;;;;5008175;28;20042;-50
2023/05/09 10:27:11;;;;;;;6.10;3.83;;;23.90;55.90;;;;;;5003238;28;20585;-51
2023/05/09 10:29:44;;;;;;;5.05;4.07;;;24.00;56.70;;;;;;5006443;28;20046;-53
2023/05/09 10:32:17;;;;;;;4.63;3.75;;;24.10;56.30;;;;;;5000327;28;20043;-52
2023/05/09 10:34:48;;;;;;;4.10;3.80;;;24.20;55.90;;;;;;5003227;28;20042;-50
2023/05/09 10:37:16;;;;;;;4.20;3.72;;;24.30;55.90;;;;;;5000480;28;20049;-53
2023/05/09 10:39:43;;;;;;;5.75;4.43;;;24.40;55.70;;;;;;5001744;28;20116;-52
2023/05/09 10:42:11;;;;;;;4.40;4.00;;;24.50;56.00;;;;;;5004109;28;20053;-50
2023/05/09 10:44:38;;;;;;;5.28;4.07;;;24.50;56.00;;;;;;5002389;28;20034;-52
2023/05/09 10:47:06;;;;;;;4.30;3.88;;;24.60;55.20;;;;;;5006986;28;20045;-52
2023/05/09 10:49:32;;;;;;;4.53;4.13;;;24.70;55.30;;;;;;4994221;28;20360;-51
2023/05/09 10:52:02;;;;;;;4.38;3.13;;;24.80;55.30;;;;;;5003048;28;20045;-52
2023/05/09 10:54:32;;;;;;;4.03;3.63;;;24.80;54.90;;;;;;5000260;28;20042;-53
2023/05/09 10:56:59;;;;;;;4.03;3.63;;;24.90;54.80;;;;;;5002655;28;20045;-53
2023/05/09 10:59:42;;;;;;;3.00;2.80;;;24.90;54.90;;;;;;5000326;28;20092;-51
2023/05/09 11:02:13;;;;;;;3.58;3.28;;;24.90;53.70;;;;;;5006570;28;20072;-52
2023/05/09 11:04:40;;;;;;;4.90;3.53;;;24.90;54.00;;;;;;5010863;28;20042;-54
2023/05/09 11:07:22;;;;;;;3.80;3.25;;;24.90;54.20;;;;;;5002870;28;20050;-52
2023/05/09 11:10:17;;;;;;;3.20;2.80;;;24.90;53.80;;;;;;5028834;28;20041;-53
2023/05/09 11:12:57;;;;;;;3.40;3.10;;;24.80;54.20;;;;;;5012286;28;20042;-51
2023/05/09 11:15:26;;;;;;;3.92;3.28;;;24.80;54.20;;;;;;5008405;28;20046;-54
2023/05/09 11:18:10;;;;;;;4.07;3.30;;;24.70;54.00;;;;;;5003855;28;20125;-52
2023/05/09 11:20:44;;;;;;;3.08;2.78;;;24.70;53.80;;;;;;5008860;28;20038;-53
2023/05/09 11:23:11;;;;;;;3.70;3.38;;;24.60;53.50;;;;;;5009487;28;20046;-52
2023/05/09 11:25:38;;;;;;;3.65;3.35;;;24.50;54.10;;;;;;5005105;28;20044;-51
2023/05/09 11:28:05;;;;;;;4.63;3.00;;;24.30;53.80;;;;;;5003204;28;20050;-49
2023/05/09 11:30:42;;;;;;;3.30;3.10;;;24.30;53.80;;;;;;5000315;28;20034;-53
2023/05/09 11:33:22;;;;;;;3.83;3.33;;;24.10;53.90;;;;;;5004752;28;20042;-52
2023/05/09 11:36:17;;;;;;;5.65;3.70;;;24.00;53.90;;;;;;5007208;28;20046;-53
2023/05/09 11:38:47;;;;;;;3.40;2.95;;;23.90;54.60;;;;;;5006037;28;20600;-50
2023/05/09 11:41:14;;;;;;;4.60;3.22;;;23.80;54.80;;;;;;5011544;28;20038;-53
2023/05/09 11:43:43;;;;;;;3.70;3.40;;;23.70;55.30;;;;;;5012658;28;20410;-50
2023/05/09 11:46:10;;;;;;;3.67;3.28;;;23.60;56.00;;;;;;5011814;28;20488;-50
2023/05/09 11:48:38;;;;;;;3.88;3.55;;;23.50;56.40;;;;;;5012445;28;20077;-53
2023/05/09 11:51:06;;;;;;;3.92;3.63;;;23.40;57.00;;;;;;5008452;28;20124;-53
2023/05/09 11:53:33;;;;;;;5.50;4.40;;;23.20;57.50;;;;;;5006453;28;20096;-54
2023/05/09 11:56:03;;;;;;;6.20;3.90;;;23.10;58.30;;;;;;5007969;28;20124;-49
2023/05/09 11:58:30;;;;;;;4.40;4.00;;;23.00;58.60;;;;;;5012377;28;20100;-52
2023/05/09 12:00:57;;;;;;;5.32;4.53;;;22.90;59.80;;;;;;5011737;28;20510;-53
2023/05/09 12:03:24;;;;;;;4.53;4.15;;;22.80;59.90;;;;;;5011721;28;20046;-52
2023/05/09 12:05:53;;;;;;;4.57;4.18;;;22.80;60.50;;;;;;5012686;28;20042;-54
2023/05/09 12:08:21;;;;;;;4.05;3.72;;;22.70;61.20;;;;;;5011958;28;20460;-53
2023/05/09 12:10:48;;;;;;;3.95;3.65;;;22.70;61.30;;;;;;5011823;28;20149;-52
2023/05/09 12:13:15;;;;;;;4.50;4.20;;;22.70;61.10;;;;;;5014232;28;20046;-54
2023/05/09 12:15:41;;;;;;;4.07;3.65;;;22.80;61.30;;;;;;5011240;28;20042;-52
2023/05/09 12:18:11;;;;;;;6.18;3.83;;;22.80;61.20;;;;;;5012145;28;20042;-54
2023/05/09 12:20:47;;;;;;;4.25;3.88;;;22.80;60.80;;;;;;5007495;28;20041;-54
2023/05/09 12:23:14;;;;;;;4.38;4.00;;;22.80;60.80;;;;;;5010934;28;20043;-54
2023/05/09 12:26:07;;;;;;;4.38;3.95;;;22.80;61.20;;;;;;5011734;28;20045;-54
2023/05/09 12:28:37;;;;;;;4.55;4.10;;;22.80;61.10;;;;;;5008260;28;20052;-50
2023/05/09 12:31:05;;;;;;;4.28;3.85;;;22.80;61.20;;;;;;5011614;28;20442;-54
2023/05/09 12:33:32;;;;;;;4.78;4.38;;;22.80;61.10;;;;;;5011811;28;20156;-52
2023/05/09 12:36:10;;;;;;;4.38;3.97;;;22.80;61.70;;;;;;5012193;28;20042;-53
2023/05/09 12:38:37;;;;;;;6.35;3.95;;;22.80;61.00;;;;;;5014386;28;20530;-53
2023/05/09 12:41:08;;;;;;;5.72;4.38;;;22.80;61.00;;;;;;5012190;28;20125;-54
2023/05/09 12:43:55;;;;;;;4.70;4.20;;;22.80;61.40;;;;;;5011724;28;20402;-51
2023/05/09 12:46:22;;;;;;;5.60;4.22;;;22.80;61.70;;;;;;5010228;28;20451;-54
2023/05/09 12:48:49;;;;;;;3.97;3.67;;;22.70;61.70;;;;;;5011023;28;20048;-51
2023/05/09 12:51:19;;;;;;;5.88;4.72;;;22.70;61.90;;;;;;5011620;28;20429;-54